• Join FlightAware (Why Join?)
  • Login
  • US Flag 
08:58AM EST


 

Airport Tracker/Info


-or-


 

Live Flight TrackerFlight Track Log ✈ MPE445 ✈ 15-May-2013 ✈ CYZF - CYEG

Flight Track Log - Related Links

Times and Time Zones

All times are in EDT time to prevent confusion due to time zone crossing. See the MPE445 flight status page for this flight to view local times or setup timezone preferences in your user account.

Time Position Orientation Groundspeed Altitude Reporting Facility
EDT Latitude Longitude Course Direction KTS MPH feet Rate Location/Type
08:15PM 62.4500 -114.4833 171° South 110 127 700  Level Edmonton Center
08:16PM 62.4000 -114.4667 171° South 180 207 2,100 1,800 Climbing Edmonton Center
08:17PM 62.3333 -114.4833 187° South 230 265 4,400 2,160 Climbing Edmonton Center
08:18PM 62.2667 -114.4667 173° South 240 276 6,500 2,100 Climbing Edmonton Center
08:19PM 62.2000 -114.4833 187° South 280 322 8,600 2,280 Climbing Edmonton Center
08:20PM 62.1167 -114.4500 169° South 270 311 11,100 1,980 Climbing Edmonton Center
08:21PM 62.0500 -114.4667 187° South 290 334 12,600 1,320 Climbing Edmonton Center
08:22PM 61.9500 -114.4667 180° South 330 380 13,800 1,500 Climbing Edmonton Center
08:23PM 61.8500 -114.4333 171° South 360 414 15,700 2,220 Climbing Edmonton Center
08:24PM 61.7333 -114.4500 184° South 370 426 18,300 2,100 Climbing Edmonton Center
08:25PM 61.6333 -114.4500 180° South 370 426 20,000 1,560 Climbing Edmonton Center
08:26PM 61.5333 -114.4500 180° South 380 437 21,500 1,500 Climbing Edmonton Center
08:27PM 61.4167 -114.4167 172° South 380 437 23,100 1,560 Climbing Edmonton Center
08:28PM 61.3167 -114.4167 180° South 390 449 24,700 1,620 Climbing Edmonton Center
08:29PM 61.2000 -114.4167 180° South 380 437 26,400 1,500 Climbing Edmonton Center
08:30PM 61.0833 -114.4333 184° South 380 437 27,800 1,200 Climbing Edmonton Center
08:31PM 60.9833 -114.4000 171° South 380 437 28,900 960 Climbing Edmonton Center
08:32PM 60.8667 -114.4000 180° South 380 437 29,800 900 Climbing Edmonton Center
08:33PM 60.7667 -114.4000 180° South 390 449 30,700 600 Climbing Edmonton Center
08:34PM 60.6667 -114.4000 180° South 390 449 31,000 120 Climbing Edmonton Center
08:35PM 60.5500 -114.4000 180° South 390 449 31,000  Level Edmonton Center
08:36PM 60.4333 -114.4167 184° South 390 449 31,000  Level Edmonton Center
08:37PM 60.3167 -114.3833 172° South 390 449 31,000  Level Edmonton Center
08:38PM 60.2167 -114.3833 180° South 380 437 31,000  Level Edmonton Center
08:39PM 60.1167 -114.3833 180° South 380 437 31,000  Level Edmonton Center
08:40PM 60.0000 -114.3833 180° South 380 437 31,000  Level Edmonton Center
08:41PM 59.9000 -114.3500 171° South 380 437 31,000  Level Edmonton Center
08:42PM 59.8000 -114.3667 179° South 380 437 31,000  Level Edmonton Center
08:43PM 59.7936 -114.3447 179° South  Level FlightAware Approximate
08:43PM 59.6667 -114.3667 180° South 380 437 31,000  Level Edmonton Center
08:44PM 59.5667 -114.3667 180° South 380 437 31,000  Level Edmonton Center
08:45PM 59.4667 -114.3333 170° South 390 449 31,000  Level Edmonton Center
08:46PM 59.3500 -114.3333 180° South 390 449 31,000  Level Edmonton Center
08:47PM 59.2500 -114.3500 185° South 390 449 31,000  Level Edmonton Center
08:48PM 59.1333 -114.3500 180° South 390 449 31,000  Level Edmonton Center
08:49PM 59.0333 -114.3167 170° South 390 449 31,000  Level Edmonton Center
08:50PM 58.9167 -114.3167 180° South 390 449 31,000  Level Edmonton Center
08:51PM 58.8000 -114.3167 180° South 390 449 31,000  Level Edmonton Center
08:52PM 58.7000 -114.3333 185° South 390 449 31,000  Level Edmonton Center
08:53PM 58.5833 -114.3333 180° South 390 449 31,000  Level Edmonton Center
08:54PM 58.4667 -114.3000 172° South 390 449 31,000  Level Edmonton Center
08:55PM 58.3667 -114.3000 180° South 390 449 31,000  Level Edmonton Center
08:56PM 58.2500 -114.3000 180° South 400 460 31,000  Level Edmonton Center
08:57PM 58.1333 -114.3000 180° South 400 460 31,000  Level Edmonton Center
08:58PM 58.0167 -114.3000 180° South 400 460 31,000  Level Edmonton Center
08:59PM 57.9167 -114.2833 175° South 400 460 31,000  Level Edmonton Center
09:00PM 57.8000 -114.2833 180° South 400 460 31,000  Level Edmonton Center
09:01PM 57.7000 -114.2833 180° South 400 460 31,000  Level Edmonton Center
09:02PM 57.5833 -114.2833 180° South 390 449 31,000  Level Edmonton Center
09:03PM 57.4833 -114.2667 175° South 390 449 31,000  Level Edmonton Center
09:04PM 57.3500 -114.2667 180° South 390 449 31,000  Level Edmonton Center
09:05PM 57.2500 -114.2667 180° South 390 449 31,000  Level Edmonton Center
09:06PM 57.1333 -114.2667 180° South 390 449 31,000  Level Edmonton Center
09:07PM 57.0333 -114.2667 180° South 390 449 31,000  Level Edmonton Center
09:08PM 56.9167 -114.2333 171° South 390 449 31,000  Level Edmonton Center
09:09PM 56.8167 -114.2500 185° South 390 449 31,000  Level Edmonton Center
09:10PM 56.6833 -114.2500 180° South 390 449 31,000  Level Edmonton Center
09:11PM 56.5833 -114.2500 180° South 400 460 31,000  Level Edmonton Center
09:12PM 56.4667 -114.2167 171° South 390 449 31,000  Level Edmonton Center
09:13PM 56.3500 -114.2167 180° South 390 449 31,000  Level Edmonton Center
09:14PM 56.2500 -114.2333 185° South 400 460 31,000  Level Edmonton Center
09:15PM 56.1500 -114.2333 180° South 400 460 31,000  Level Edmonton Center
09:16PM 56.0333 -114.2333 180° South 400 460 31,000  Level Edmonton Center
09:17PM 55.9333 -114.2167 175° South 400 460 31,000  Level Edmonton Center
09:18PM 55.8000 -114.2167 180° South 400 460 31,000  Level Edmonton Center
09:19PM 55.6833 -114.2167 180° South 400 460 31,000  Level Edmonton Center
09:20PM 55.5667 -114.2167 180° South 400 460 31,000  Level Edmonton Center
09:21PM 55.4667 -114.2167 180° South 400 460 31,000  Level Edmonton Center
09:22PM 55.3500 -114.1833 171° South 390 449 31,000  Level Edmonton Center
09:23PM 55.2500 -114.2000 185° South 380 437 31,000  Level Edmonton Center
09:24PM 55.1333 -114.2000 180° South 380 437 31,000  Level Edmonton Center
09:25PM 55.0333 -114.2000 180° South 370 426 31,000  Level Edmonton Center
09:26PM 54.9333 -114.1833 175° South 370 426 31,000  Level Edmonton Center
09:27PM 54.8333 -114.1833 180° South 360 414 31,000  Level Edmonton Center
09:28PM 54.7333 -114.2000 185° South 360 414 31,000  Level Edmonton Center
09:29PM 54.6333 -114.1667 169° South 360 414 31,000  Level Edmonton Center
09:30PM 54.5333 -114.1833 186° South 360 414 31,000  Level Edmonton Center
09:31PM 54.4333 -114.1833 180° South 360 414 31,000 -1,200 Level Edmonton Center
09:32PM 54.3333 -114.1500 169° South 360 414 28,700 -2,820 Descending Edmonton Center
09:33PM 54.2167 -114.1667 185° South 380 437 25,400 -2,880 Descending Edmonton Center
09:34PM 54.1167 -114.1333 169° South 380 437 23,000 -2,940 Descending Edmonton Center
09:35PM 54.0333 -114.0333 145° Southeast 390 449 19,600 -3,360 Descending Edmonton Center
09:36PM 53.9333 -113.9500 154° Southeast 400 460 16,300 -2,760 Descending Edmonton Center
09:37PM 53.8333 -113.8500 149° Southeast 370 426 14,100 -2,580 Descending Edmonton Center
09:38PM 53.7500 -113.7667 149° Southeast 360 414 11,200 -2,100 Descending Edmonton Center
09:39PM 53.6667 -113.6667 145° Southeast 330 380 10,000 -1,500 Descending Edmonton Center
09:40PM 53.6000 -113.5833 143° Southeast 290 334 8,300 -1,560 Descending Edmonton Center
09:41PM 53.5167 -113.5500 167° South 280 322 6,900 -1,380 Descending Edmonton Center
09:42PM 53.4500 -113.4667 143° Southeast 260 299 5,600 -780 Descending Edmonton Center
09:43PM 53.4000 -113.4667 180° South 200 230 5,400 -720 Descending Edmonton Center
09:44PM 53.3667 -113.5167 222° Southwest 170 196 4,200 -1,200 Descending Edmonton Center
09:45PM 53.3333 -113.5667 222° Southwest 140 161 3,000 -960 Descending Edmonton Center
09:46PM 53.3000 -113.6167 222° Southwest 140 161 2,300 -720 Descending Edmonton Center